createdAt,value
2023-01-23T00:00:01.271Z,9.85
2023-01-23T00:02:19.605Z,10.38
2023-01-23T00:04:36.809Z,10.07
2023-01-23T00:06:54.764Z,10.45
2023-01-23T00:09:12.425Z,9.35
2023-01-23T00:11:30.512Z,9.15
2023-01-23T00:13:48.737Z,8.80
2023-01-23T00:16:06.052Z,9.00
2023-01-23T00:18:23.515Z,8.75
2023-01-23T00:20:40.822Z,8.90
2023-01-23T00:22:58.157Z,8.48
2023-01-23T00:25:15.513Z,8.30
2023-01-23T00:27:32.912Z,8.52
2023-01-23T00:29:50.177Z,8.82
2023-01-23T00:32:07.143Z,9.77
2023-01-23T00:34:24.298Z,9.73
2023-01-23T00:36:42.399Z,9.45
2023-01-23T00:38:59.725Z,9.57
2023-01-23T00:41:16.787Z,9.57
2023-01-23T00:43:37.080Z,9.75
2023-01-23T00:45:54.456Z,10.18
2023-01-23T00:48:12.113Z,9.10
2023-01-23T00:50:29.103Z,9.90
2023-01-23T00:52:47.565Z,8.93
2023-01-23T00:55:04.590Z,8.80
2023-01-23T00:57:21.889Z,8.27
2023-01-23T00:59:39.022Z,8.23
2023-01-23T01:01:56.497Z,9.07
2023-01-23T01:04:13.862Z,8.45
2023-01-23T01:06:31.393Z,8.38
2023-01-23T01:08:48.491Z,8.38
2023-01-23T01:11:05.939Z,7.88
2023-01-23T01:13:23.387Z,8.02
2023-01-23T01:15:40.347Z,8.18
2023-01-23T01:18:00.122Z,8.18
2023-01-23T01:20:17.676Z,8.43
2023-01-23T01:22:35.321Z,8.25
2023-01-23T01:24:52.473Z,7.75
2023-01-23T01:27:09.791Z,8.35
2023-01-23T01:29:29.198Z,8.77
2023-01-23T01:31:47.698Z,8.40
2023-01-23T01:34:05.123Z,7.65
2023-01-23T01:36:23.400Z,7.82
2023-01-23T01:38:41.414Z,7.80
2023-01-23T01:40:59.768Z,7.15
2023-01-23T01:43:16.765Z,7.13
2023-01-23T01:45:33.745Z,7.00
2023-01-23T01:47:52.000Z,7.65
2023-01-23T01:50:11.465Z,7.82
2023-01-23T01:52:29.638Z,7.35
2023-01-23T01:54:46.630Z,7.78
2023-01-23T01:57:04.165Z,8.10
2023-01-23T01:59:21.251Z,7.25
2023-01-23T02:01:39.262Z,7.60
2023-01-23T02:03:57.330Z,8.88
2023-01-23T02:06:14.470Z,8.25
2023-01-23T02:08:31.652Z,8.60
2023-01-23T02:10:49.681Z,8.02
2023-01-23T02:13:06.756Z,7.68
2023-01-23T02:15:24.121Z,8.02
2023-01-23T02:17:41.570Z,7.35
2023-01-23T02:19:58.664Z,7.75
2023-01-23T02:22:15.668Z,8.10
2023-01-23T02:24:32.961Z,8.02
2023-01-23T02:26:50.115Z,7.97
2023-01-23T02:29:07.413Z,7.97
2023-01-23T02:31:24.548Z,7.97
2023-01-23T02:33:41.909Z,7.97
2023-01-23T02:35:59.068Z,7.55
2023-01-23T02:38:17.234Z,8.00
2023-01-23T02:40:35.283Z,7.95
2023-01-23T02:42:52.588Z,7.88
2023-01-23T02:45:09.658Z,7.80
2023-01-23T02:47:29.454Z,7.85
2023-01-23T02:49:48.956Z,8.18
2023-01-23T02:52:05.993Z,7.72
2023-01-23T02:54:23.125Z,8.05
2023-01-23T02:56:40.161Z,8.23
2023-01-23T02:58:57.216Z,7.90
2023-01-23T03:01:14.499Z,7.82
2023-01-23T03:03:31.555Z,7.07
2023-01-23T03:05:48.537Z,7.35
2023-01-23T03:08:05.455Z,7.80
2023-01-23T03:10:22.581Z,8.35
2023-01-23T03:12:40.934Z,7.32
2023-01-23T03:14:58.019Z,8.10
2023-01-23T03:17:17.743Z,7.82
2023-01-23T03:19:37.493Z,8.18
2023-01-23T03:21:54.846Z,8.25
2023-01-23T03:24:12.088Z,7.30
2023-01-23T03:26:29.125Z,7.63
2023-01-23T03:28:47.425Z,8.43
2023-01-23T03:31:04.863Z,8.13
2023-01-23T03:33:21.947Z,7.63
2023-01-23T03:35:39.981Z,7.22
2023-01-23T03:37:57.368Z,8.18
2023-01-23T03:40:14.491Z,7.10
2023-01-23T03:42:31.650Z,7.72
2023-01-23T03:44:48.763Z,7.97
2023-01-23T03:47:08.479Z,7.05
2023-01-23T03:49:26.774Z,7.63
2023-01-23T03:51:44.754Z,7.15
2023-01-23T03:54:01.790Z,7.95
2023-01-23T03:56:18.859Z,7.78
2023-01-23T03:58:35.957Z,7.60
2023-01-23T04:00:53.068Z,7.70
2023-01-23T04:03:10.187Z,6.68
2023-01-23T04:05:27.781Z,6.70
2023-01-23T04:07:44.925Z,7.18
2023-01-23T04:10:02.219Z,6.30
2023-01-23T04:12:20.179Z,6.57
2023-01-23T04:14:37.161Z,6.93
2023-01-23T04:16:55.208Z,6.93
2023-01-23T04:19:12.263Z,7.25
2023-01-23T04:21:29.285Z,7.40
2023-01-23T04:23:46.537Z,7.68
2023-01-23T04:26:03.416Z,7.10
2023-01-23T04:28:20.339Z,7.55
2023-01-23T04:30:37.335Z,6.47
2023-01-23T04:32:54.369Z,6.40
2023-01-23T04:35:11.435Z,5.93
2023-01-23T04:37:28.668Z,6.45
2023-01-23T04:39:45.906Z,6.18
2023-01-23T04:42:02.965Z,5.95
2023-01-23T04:44:20.061Z,6.70
2023-01-23T04:46:37.142Z,6.22
2023-01-23T04:48:54.178Z,6.65
2023-01-23T04:51:11.489Z,6.85
2023-01-23T04:53:28.822Z,7.63
2023-01-23T04:55:45.795Z,8.35
2023-01-23T04:58:02.829Z,8.40
2023-01-23T05:00:20.187Z,9.15
2023-01-23T05:02:37.720Z,8.07
2023-01-23T05:04:55.975Z,9.48
2023-01-23T05:07:13.305Z,8.48
2023-01-23T05:09:30.506Z,9.80
2023-01-23T05:11:47.525Z,8.20
2023-01-23T05:14:05.077Z,7.63
2023-01-23T05:16:22.043Z,7.10
2023-01-23T05:18:39.341Z,7.70
2023-01-23T05:20:57.656Z,7.10
2023-01-23T05:23:14.709Z,6.93
2023-01-23T05:25:31.768Z,7.10
2023-01-23T05:27:48.980Z,7.55
2023-01-23T05:30:06.243Z,9.57
2023-01-23T05:32:23.246Z,8.98
2023-01-23T05:34:41.418Z,9.15
2023-01-23T05:36:58.698Z,8.20
2023-01-23T05:39:15.731Z,7.18
2023-01-23T05:41:32.712Z,7.25
2023-01-23T05:43:50.011Z,6.53
2023-01-23T05:46:08.022Z,6.30
2023-01-23T05:48:24.931Z,6.80
2023-01-23T05:50:42.218Z,6.47
2023-01-23T05:52:59.203Z,6.43
2023-01-23T05:55:16.501Z,6.30
2023-01-23T05:57:33.838Z,6.60
2023-01-23T05:59:50.884Z,6.38
2023-01-23T06:02:07.910Z,6.18
2023-01-23T06:04:25.182Z,5.72
2023-01-23T06:06:42.260Z,6.22
2023-01-23T06:08:59.196Z,6.60
2023-01-23T06:11:16.265Z,6.22
2023-01-23T06:13:33.264Z,6.70
2023-01-23T06:15:50.313Z,6.72
2023-01-23T06:18:07.377Z,6.00
2023-01-23T06:20:25.418Z,6.25
2023-01-23T06:22:42.473Z,6.15
2023-01-23T06:24:59.499Z,6.53
2023-01-23T06:27:16.811Z,6.47
2023-01-23T06:29:33.852Z,6.30
2023-01-23T06:31:50.960Z,7.57
2023-01-23T06:34:08.029Z,7.50
2023-01-23T06:36:25.316Z,8.05
2023-01-23T06:38:42.251Z,9.02
2023-01-23T06:40:59.234Z,8.65
2023-01-23T06:43:16.503Z,8.82
2023-01-23T06:45:33.773Z,8.95
2023-01-23T06:47:51.692Z,8.52
2023-01-23T06:50:08.703Z,8.40
2023-01-23T06:52:25.987Z,7.15
2023-01-23T06:54:43.002Z,7.38
2023-01-23T06:57:01.369Z,6.90
2023-01-23T06:59:18.683Z,6.72
2023-01-23T07:01:35.755Z,6.70
2023-01-23T07:03:53.079Z,6.93
2023-01-23T07:06:10.127Z,6.32
2023-01-23T07:08:27.120Z,6.47
2023-01-23T07:10:44.861Z,6.63
2023-01-23T07:13:01.842Z,6.00
2023-01-23T07:15:18.848Z,6.60
2023-01-23T07:17:35.790Z,5.65
2023-01-23T07:19:52.824Z,5.82
2023-01-23T07:22:09.827Z,5.22
2023-01-23T07:24:27.080Z,6.28
2023-01-23T07:26:44.134Z,5.50
2023-01-23T07:29:02.165Z,5.43
2023-01-23T07:31:19.537Z,5.45
2023-01-23T07:33:37.838Z,5.65
2023-01-23T07:35:55.183Z,6.15
2023-01-23T07:38:12.422Z,6.00
2023-01-23T07:40:29.481Z,6.18
2023-01-23T07:42:46.803Z,7.25
2023-01-23T07:45:04.643Z,6.95
2023-01-23T07:47:21.734Z,7.07
2023-01-23T07:49:38.803Z,6.65
2023-01-23T07:51:55.835Z,7.05
2023-01-23T07:54:12.830Z,6.50
2023-01-23T07:56:29.875Z,6.88
2023-01-23T07:58:46.903Z,6.68
2023-01-23T08:01:03.917Z,7.30
2023-01-23T08:03:20.875Z,6.95
2023-01-23T08:05:38.143Z,6.72
2023-01-23T08:08:11.385Z,7.25
2023-01-23T08:12:47.490Z,5.68
2023-01-23T08:15:04.583Z,6.20
2023-01-23T08:17:21.662Z,6.93
2023-01-23T08:19:38.667Z,7.90
2023-01-23T08:21:55.685Z,8.02
2023-01-23T08:24:13.077Z,7.90
2023-01-23T08:26:30.073Z,8.23
2023-01-23T08:28:47.318Z,8.45
2023-01-23T08:31:06.567Z,8.07
2023-01-23T08:33:24.007Z,8.02
2023-01-23T08:35:42.024Z,8.77
2023-01-23T08:37:59.303Z,8.48
2023-01-23T08:40:17.531Z,10.93
2023-01-23T08:42:34.605Z,13.98
2023-01-23T08:44:51.671Z,11.60
2023-01-23T08:47:09.018Z,10.25
2023-01-23T08:49:26.230Z,8.05
2023-01-23T08:51:43.525Z,7.00
2023-01-23T08:54:00.549Z,7.53
2023-01-23T08:56:17.835Z,6.75
2023-01-23T08:58:34.756Z,6.90
2023-01-23T09:00:51.836Z,7.00
2023-01-23T09:03:11.096Z,7.20
2023-01-23T09:05:28.642Z,6.60
2023-01-23T09:07:45.543Z,6.82
2023-01-23T09:10:02.534Z,6.35
2023-01-23T09:12:19.769Z,6.50
2023-01-23T09:14:37.005Z,6.57
2023-01-23T09:16:54.089Z,6.70
2023-01-23T09:19:11.497Z,6.15
2023-01-23T09:21:28.508Z,6.32
2023-01-23T09:23:45.594Z,6.55
2023-01-23T09:26:02.799Z,7.10
2023-01-23T09:28:19.836Z,6.03
2023-01-23T09:30:36.792Z,6.35
2023-01-23T09:32:53.688Z,6.50
2023-01-23T09:35:10.731Z,6.05
2023-01-23T09:37:28.069Z,5.72
2023-01-23T09:39:44.934Z,5.80
2023-01-23T09:42:01.958Z,5.78
2023-01-23T09:44:19.273Z,7.70
2023-01-23T09:46:36.600Z,6.68
2023-01-23T09:48:53.546Z,6.63
2023-01-23T09:51:10.588Z,6.03
2023-01-23T09:53:27.915Z,6.60
2023-01-23T09:55:44.986Z,6.30
2023-01-23T09:58:02.204Z,5.90
2023-01-23T10:00:19.541Z,6.28
2023-01-23T10:02:37.825Z,6.55
2023-01-23T10:04:54.904Z,5.97
2023-01-23T10:07:11.891Z,5.75
2023-01-23T10:09:29.125Z,6.07
2023-01-23T10:11:46.382Z,6.85
2023-01-23T10:14:03.677Z,6.60
2023-01-23T10:16:20.752Z,6.03
2023-01-23T10:18:37.701Z,7.22
2023-01-23T10:20:54.704Z,7.30
2023-01-23T10:23:11.780Z,6.57
2023-01-23T10:25:28.744Z,6.75
2023-01-23T10:27:46.050Z,6.45
2023-01-23T10:30:03.121Z,6.65
2023-01-23T10:32:21.159Z,6.90
2023-01-23T10:34:38.451Z,6.82
2023-01-23T10:36:55.417Z,7.10
2023-01-23T10:39:12.689Z,6.78
2023-01-23T10:41:29.823Z,7.22
2023-01-23T10:43:47.132Z,7.28
2023-01-23T10:46:04.414Z,7.45
2023-01-23T10:48:21.716Z,7.45
2023-01-23T10:50:39.001Z,7.63
2023-01-23T10:52:55.998Z,8.13
2023-01-23T10:55:13.996Z,7.70
2023-01-23T10:57:31.037Z,7.70
2023-01-23T10:59:48.360Z,7.70
2023-01-23T11:02:05.634Z,8.02
2023-01-23T11:04:23.759Z,8.15
2023-01-23T11:06:40.794Z,8.38
2023-01-23T11:08:58.857Z,7.63
2023-01-23T11:11:16.140Z,7.55
2023-01-23T11:13:34.160Z,7.65
2023-01-23T11:15:51.205Z,7.22
2023-01-23T11:18:08.547Z,7.57
2023-01-23T11:20:25.538Z,7.40
2023-01-23T11:22:43.484Z,6.78
2023-01-23T11:25:00.694Z,6.65
2023-01-23T11:27:17.740Z,6.80
2023-01-23T11:29:38.099Z,7.25
2023-01-23T11:31:55.316Z,6.82
2023-01-23T11:34:13.813Z,6.60
2023-01-23T11:36:31.190Z,6.68
2023-01-23T11:38:52.735Z,6.95
2023-01-23T11:41:10.207Z,6.80
2023-01-23T11:43:28.158Z,6.95
2023-01-23T11:45:45.399Z,6.57
2023-01-23T11:48:02.730Z,7.05
2023-01-23T11:50:20.711Z,7.28
2023-01-23T11:52:37.730Z,6.78
2023-01-23T11:54:54.688Z,7.15
2023-01-23T11:57:11.969Z,6.95
2023-01-23T11:59:30.208Z,6.65
2023-01-23T12:01:58.426Z,6.43
2023-01-23T12:04:19.996Z,6.25
2023-01-23T12:06:36.947Z,5.55
2023-01-23T12:08:53.878Z,5.40
2023-01-23T12:11:11.197Z,5.85
2023-01-23T12:13:28.268Z,5.93
2023-01-23T12:15:45.526Z,5.15
2023-01-23T12:20:20.188Z,5.25
2023-01-23T12:22:37.538Z,5.50
2023-01-23T12:24:55.058Z,5.90
2023-01-23T12:27:11.982Z,5.55
2023-01-23T12:29:29.112Z,5.50
2023-01-23T12:31:47.710Z,6.13
2023-01-23T12:34:04.864Z,5.93
2023-01-23T12:36:22.040Z,5.82
2023-01-23T12:38:39.106Z,5.93
2023-01-23T12:40:57.112Z,5.82
2023-01-23T12:43:14.552Z,5.78
2023-01-23T12:45:31.996Z,5.55
2023-01-23T12:47:51.685Z,6.22
2023-01-23T12:50:08.821Z,5.88
2023-01-23T12:52:26.143Z,6.20
2023-01-23T12:54:43.530Z,5.90
2023-01-23T12:57:00.475Z,6.22
2023-01-23T12:59:21.948Z,5.90
2023-01-23T13:01:39.477Z,6.35
2023-01-23T13:03:56.802Z,5.85
2023-01-23T13:06:14.359Z,9.77
2023-01-23T13:08:37.847Z,8.85
2023-01-23T13:10:55.485Z,6.97
2023-01-23T13:13:12.462Z,6.85
2023-01-23T13:15:39.519Z,6.45
2023-01-23T13:17:57.342Z,11.50
2023-01-23T13:20:14.383Z,9.10
2023-01-23T13:22:32.691Z,8.93
2023-01-23T13:24:50.173Z,8.10
2023-01-23T13:27:07.539Z,8.48
2023-01-23T13:29:24.809Z,6.97
2023-01-23T13:31:42.022Z,6.47
2023-01-23T13:34:14.528Z,6.53
2023-01-23T13:36:40.311Z,6.45
2023-01-23T13:38:57.534Z,6.03
2023-01-23T13:41:14.638Z,5.90
2023-01-23T13:43:31.977Z,6.57
2023-01-23T13:45:50.307Z,6.55
2023-01-23T14:20:51.215Z,5.80
2023-01-23T14:23:09.549Z,5.57
2023-01-23T14:25:26.812Z,5.45
2023-01-23T14:27:52.895Z,5.80
2023-01-23T14:30:11.031Z,5.28
2023-01-23T14:32:28.063Z,5.30
2023-01-23T14:34:46.073Z,6.53
2023-01-23T14:37:03.043Z,6.60
2023-01-23T14:39:20.116Z,7.57
2023-01-23T14:41:41.184Z,6.82
2023-01-23T14:43:58.791Z,6.88
2023-01-23T14:46:15.801Z,6.70
2023-01-23T14:48:32.871Z,7.47
2023-01-23T14:50:49.823Z,6.43
2023-01-23T14:53:06.899Z,6.43
2023-01-23T14:55:29.897Z,5.40
2023-01-23T14:57:47.520Z,5.70
2023-01-23T15:00:04.789Z,5.53
2023-01-23T15:02:21.830Z,5.50
2023-01-23T15:04:38.838Z,5.70
2023-01-23T15:06:57.170Z,5.90
2023-01-23T15:09:14.254Z,5.47
2023-01-23T15:11:31.266Z,4.93
2023-01-23T15:13:48.559Z,5.63
2023-01-23T15:16:05.598Z,5.80
2023-01-23T15:18:22.543Z,5.93
2023-01-23T15:20:40.817Z,5.72
2023-01-23T15:22:58.138Z,6.65
2023-01-23T15:25:16.427Z,6.65
2023-01-23T15:27:33.434Z,6.80
2023-01-23T15:29:50.510Z,7.38
2023-01-23T15:32:08.595Z,7.78
2023-01-23T15:34:25.758Z,9.65
2023-01-23T15:36:42.734Z,9.15
2023-01-23T15:38:59.820Z,9.77
2023-01-23T15:41:23.772Z,9.20
2023-01-23T15:43:44.841Z,9.52
2023-01-23T15:46:01.964Z,11.40
2023-01-23T15:48:21.916Z,9.02
2023-01-23T15:50:38.922Z,10.45
2023-01-23T15:52:56.433Z,10.15
2023-01-23T15:55:13.554Z,9.57
2023-01-23T15:57:32.981Z,10.23
2023-01-23T15:59:52.712Z,9.07
2023-01-23T16:02:24.785Z,8.55
2023-01-23T16:04:46.662Z,8.70
2023-01-23T16:07:04.931Z,8.70
2023-01-23T16:09:22.209Z,9.23
2023-01-23T16:11:39.147Z,9.80
2023-01-23T16:13:58.685Z,9.18
2023-01-23T16:16:17.042Z,9.43
2023-01-23T16:18:34.171Z,8.27
2023-01-23T16:20:51.273Z,10.52
2023-01-23T16:23:14.535Z,9.57
2023-01-23T16:28:03.274Z,9.35
2023-01-23T16:30:20.306Z,9.52
2023-01-23T16:32:38.711Z,10.18
2023-01-23T16:34:55.865Z,9.82
2023-01-23T16:37:12.938Z,10.23
2023-01-23T16:39:30.023Z,10.38
2023-01-23T16:41:47.125Z,10.10
2023-01-23T16:44:04.395Z,10.00
2023-01-23T16:46:21.811Z,10.07
2023-01-23T16:48:39.209Z,9.85
2023-01-23T16:50:56.344Z,9.52
2023-01-23T16:53:13.373Z,9.35
2023-01-23T16:55:30.809Z,9.48
2023-01-23T16:57:48.981Z,8.80
2023-01-23T17:00:06.092Z,10.48
2023-01-23T17:02:23.380Z,9.35
2023-01-23T17:04:40.694Z,10.35
2023-01-23T17:06:57.706Z,10.50
2023-01-23T17:09:15.125Z,9.82
2023-01-23T17:11:32.190Z,9.20
2023-01-23T17:13:49.573Z,9.73
2023-01-23T17:16:21.866Z,9.35
2023-01-23T17:18:43.600Z,11.05
2023-01-23T17:21:00.647Z,10.40
2023-01-23T17:23:17.681Z,9.70
2023-01-23T17:25:35.406Z,10.07
2023-01-23T17:28:11.587Z,9.60
2023-01-23T17:30:29.359Z,10.15
2023-01-23T17:32:46.302Z,9.25
2023-01-23T17:35:03.541Z,9.88
2023-01-23T17:37:20.591Z,10.13
2023-01-23T17:39:37.625Z,11.23
2023-01-23T17:41:54.566Z,11.05
2023-01-23T17:44:11.731Z,10.40
2023-01-23T17:46:30.080Z,9.68
2023-01-23T17:48:48.172Z,8.95
2023-01-23T17:51:05.224Z,9.27
2023-01-23T17:53:22.512Z,10.32
2023-01-23T17:55:40.161Z,10.70
2023-01-23T17:57:58.321Z,11.07
2023-01-23T18:00:15.241Z,10.70
2023-01-23T18:02:32.302Z,10.43
2023-01-23T18:04:49.353Z,9.65
2023-01-23T18:07:06.568Z,9.15
2023-01-23T18:09:23.641Z,9.40
2023-01-23T18:11:41.820Z,9.88
2023-01-23T18:14:00.016Z,11.60
2023-01-23T18:16:17.323Z,10.75
2023-01-23T18:18:34.247Z,9.93
2023-01-23T18:20:51.597Z,10.23
2023-01-23T18:23:09.783Z,9.75
2023-01-23T18:25:27.101Z,9.85
2023-01-23T18:27:45.166Z,10.13
2023-01-23T18:30:02.220Z,10.18
2023-01-23T18:32:19.225Z,10.30
2023-01-23T18:34:36.259Z,10.48
2023-01-23T18:36:53.336Z,9.77
2023-01-23T18:39:10.651Z,10.45
2023-01-23T18:41:27.721Z,9.68
2023-01-23T18:43:46.047Z,8.95
2023-01-23T18:46:03.014Z,10.85
2023-01-23T18:48:25.495Z,12.75
2023-01-23T18:50:42.734Z,11.10
2023-01-23T18:53:00.015Z,12.98
2023-01-23T18:55:17.306Z,12.43
2023-01-23T18:57:34.296Z,12.30
2023-01-23T18:59:51.318Z,13.73
2023-01-23T19:02:08.904Z,13.20
2023-01-23T19:04:26.055Z,14.13
2023-01-23T19:06:43.189Z,12.10
2023-01-23T19:09:01.140Z,11.48
2023-01-23T19:11:18.454Z,11.32
2023-01-23T19:13:35.525Z,10.52
2023-01-23T19:15:52.830Z,9.80
2023-01-23T19:18:09.799Z,9.88
2023-01-23T19:20:27.107Z,10.98
2023-01-23T19:22:44.039Z,10.23
2023-01-23T19:25:00.978Z,10.65
2023-01-23T19:27:18.237Z,10.10
2023-01-23T19:29:35.261Z,11.85
2023-01-23T19:32:05.047Z,12.52
2023-01-23T19:34:24.076Z,11.00
2023-01-23T19:36:41.097Z,11.65
2023-01-23T19:38:59.304Z,11.82
2023-01-23T19:41:16.536Z,11.05
2023-01-23T19:43:33.528Z,10.93
2023-01-23T19:45:51.525Z,10.48
2023-01-23T19:48:08.441Z,9.38
2023-01-23T19:50:26.453Z,10.50
2023-01-23T19:52:43.624Z,10.98
2023-01-23T19:55:00.914Z,9.75
2023-01-23T19:57:18.046Z,9.07
2023-01-23T19:59:35.317Z,9.63
2023-01-23T20:01:52.304Z,10.73
2023-01-23T20:04:09.362Z,10.02
2023-01-23T20:06:26.344Z,11.02
2023-01-23T20:08:43.399Z,11.13
2023-01-23T20:11:00.757Z,10.32
2023-01-23T20:13:18.059Z,9.90
2023-01-23T20:15:35.122Z,9.88
2023-01-23T20:17:52.173Z,10.68
2023-01-23T20:20:09.503Z,9.43
2023-01-23T20:22:26.514Z,9.73
2023-01-23T20:24:43.490Z,9.90
2023-01-23T20:27:00.505Z,10.02
2023-01-23T20:29:17.705Z,9.80
2023-01-23T20:31:34.923Z,10.02
2023-01-23T20:33:52.381Z,10.57
2023-01-23T20:36:09.459Z,10.55
2023-01-23T20:38:26.746Z,9.80
2023-01-23T20:40:43.824Z,9.93
2023-01-23T20:43:00.938Z,10.60
2023-01-23T20:45:17.996Z,10.20
2023-01-23T20:47:36.232Z,9.40
2023-01-23T20:49:53.322Z,9.38
2023-01-23T20:52:10.568Z,9.82
2023-01-23T20:54:27.552Z,10.98
2023-01-23T20:56:45.931Z,10.80
2023-01-23T20:59:02.909Z,11.40
2023-01-23T21:01:20.283Z,10.75
2023-01-23T21:03:37.682Z,10.13
2023-01-23T21:05:55.196Z,11.25
2023-01-23T21:08:12.517Z,11.18
2023-01-23T21:10:30.851Z,11.20
2023-01-23T21:12:48.511Z,12.70
2023-01-23T21:15:05.837Z,12.50
2023-01-23T21:17:23.893Z,12.55
2023-01-23T21:19:41.011Z,12.15
2023-01-23T21:21:58.100Z,12.60
2023-01-23T21:24:15.184Z,11.00
2023-01-23T21:26:33.508Z,11.10
2023-01-23T21:28:50.755Z,11.38
2023-01-23T21:31:08.909Z,11.07
2023-01-23T21:33:26.356Z,11.23
2023-01-23T21:35:43.479Z,12.07
2023-01-23T21:38:00.575Z,11.50
2023-01-23T21:40:17.557Z,11.95
2023-01-23T21:42:34.853Z,12.30
2023-01-23T21:44:51.833Z,11.32
2023-01-23T21:47:08.845Z,10.95
2023-01-23T21:49:25.803Z,11.75
2023-01-23T21:51:42.795Z,10.85
2023-01-23T21:53:59.825Z,11.57
2023-01-23T21:56:17.564Z,11.48
2023-01-23T21:58:35.801Z,11.60
2023-01-23T22:00:53.218Z,12.07
2023-01-23T22:03:11.261Z,11.18
2023-01-23T22:05:28.628Z,11.23
2023-01-23T22:07:45.686Z,12.43
2023-01-23T22:10:02.845Z,12.35
2023-01-23T22:12:21.198Z,12.98
2023-01-23T22:14:38.265Z,11.73
2023-01-23T22:16:56.592Z,11.95
2023-01-23T22:19:15.784Z,12.05
2023-01-23T22:21:33.063Z,11.77
2023-01-23T22:23:50.361Z,11.63
2023-01-23T22:26:08.413Z,12.30
2023-01-23T22:28:26.299Z,12.35
2023-01-23T22:30:43.578Z,12.48
2023-01-23T22:33:00.682Z,12.30
2023-01-23T22:35:18.044Z,12.00
2023-01-23T22:37:35.376Z,11.82
2023-01-23T22:39:52.456Z,11.73
2023-01-23T22:42:10.792Z,11.43
2023-01-23T22:44:27.831Z,10.68
2023-01-23T22:46:45.135Z,11.27
2023-01-23T22:49:02.199Z,11.88
2023-01-23T22:51:19.505Z,11.40
2023-01-23T22:53:36.829Z,11.13
2023-01-23T22:55:53.938Z,12.00
2023-01-23T22:58:11.018Z,10.70
2023-01-23T23:00:28.480Z,11.25
2023-01-23T23:02:45.577Z,10.50
2023-01-23T23:05:02.568Z,10.20
2023-01-23T23:07:19.645Z,11.23
2023-01-23T23:09:36.988Z,10.52
2023-01-23T23:11:54.410Z,10.98
2023-01-23T23:14:11.688Z,11.18
2023-01-23T23:16:28.868Z,10.88
2023-01-23T23:18:47.013Z,10.75
2023-01-23T23:21:03.984Z,11.55
2023-01-23T23:23:21.504Z,10.80
2023-01-23T23:25:38.649Z,10.60
2023-01-23T23:27:56.134Z,10.90
2023-01-23T23:30:14.064Z,10.50
2023-01-23T23:32:31.151Z,11.07
2023-01-23T23:34:48.224Z,11.65
2023-01-23T23:37:05.259Z,11.48
2023-01-23T23:39:22.536Z,11.68
2023-01-23T23:41:39.642Z,11.43
2023-01-23T23:43:56.713Z,11.30
2023-01-23T23:46:14.098Z,10.90
2023-01-23T23:48:31.203Z,11.35
2023-01-23T23:50:48.352Z,10.80
2023-01-23T23:53:05.733Z,10.95
2023-01-23T23:55:23.390Z,10.82
2023-01-23T23:57:41.102Z,10.73
2023-01-23T23:59:58.693Z,11.13
